createdAt,value
2023-05-21T00:02:18.737Z,97232.09
2023-05-21T00:05:05.473Z,97235.31
2023-05-21T00:07:53.680Z,97232.13
2023-05-21T00:10:39.063Z,97234.56
2023-05-21T00:13:24.499Z,97224.38
2023-05-21T00:16:11.367Z,97222.25
2023-05-21T00:18:58.305Z,97230.03
2023-05-21T00:21:46.035Z,97224.41
2023-05-21T00:24:31.425Z,97231.13
2023-05-21T00:27:16.916Z,97228.19
2023-05-21T00:30:03.737Z,97225.50
2023-05-21T00:32:49.201Z,97219.38
2023-05-21T00:35:34.839Z,97219.66
2023-05-21T00:38:20.664Z,97212.16
2023-05-21T00:41:06.003Z,97223.13
2023-05-21T00:43:52.882Z,97214.84
2023-05-21T00:46:38.566Z,97216.97
2023-05-21T00:49:24.582Z,97219.13
2023-05-21T00:52:11.592Z,97214.31
2023-05-21T00:54:57.251Z,97218.63
2023-05-21T00:57:43.110Z,97212.72
2023-05-21T01:00:28.770Z,97206.03
2023-05-21T01:03:14.810Z,97210.06
2023-05-21T01:06:00.607Z,97208.72
2023-05-21T01:08:46.717Z,97209.25
2023-05-21T01:11:44.970Z,97203.66
2023-05-21T01:14:31.502Z,97207.66
2023-05-21T01:17:17.098Z,97203.91
2023-05-21T01:20:10.155Z,97206.03
2023-05-21T01:22:56.925Z,97204.69
2023-05-21T01:25:43.923Z,97199.63
2023-05-21T01:28:34.511Z,97202.81
2023-05-21T01:31:28.485Z,97205.78
2023-05-21T01:34:16.848Z,97204.16
2023-05-21T01:37:13.115Z,97208.47
2023-05-21T01:40:08.405Z,97195.59
2023-05-21T01:42:54.341Z,97203.09
2023-05-21T01:45:42.311Z,97195.63
2023-05-21T01:48:29.758Z,97207.91
2023-05-21T01:51:15.858Z,97196.97
2023-05-21T01:54:01.861Z,97194.03
2023-05-21T01:56:48.029Z,97198.81
2023-05-21T01:59:33.981Z,97192.66
2023-05-21T02:02:19.717Z,97186.78
2023-05-21T02:05:05.846Z,97185.19
2023-05-21T02:07:52.185Z,97191.31
2023-05-21T02:10:37.603Z,97196.16
2023-05-21T02:13:26.247Z,97196.66
2023-05-21T02:16:14.976Z,97182.75
2023-05-21T02:19:00.994Z,97190.78
2023-05-21T02:21:46.612Z,97191.06
2023-05-21T02:24:32.092Z,97188.09
2023-05-21T02:27:17.922Z,97182.75
2023-05-21T02:30:08.571Z,97190.25
2023-05-21T02:32:55.765Z,97191.31
2023-05-21T02:35:41.764Z,97193.44
2023-05-21T02:38:27.297Z,97184.88
2023-05-21T02:41:12.790Z,97188.09
2023-05-21T02:43:58.011Z,97187.56
2023-05-21T02:46:43.637Z,97190.78
2023-05-21T02:49:29.657Z,97186.50
2023-05-21T02:52:15.180Z,97185.94
2023-05-21T02:55:00.829Z,97178.19
2023-05-21T02:57:46.671Z,97178.44
2023-05-21T03:00:32.429Z,97176.88
2023-05-21T03:03:19.295Z,97187.00
2023-05-21T03:06:04.988Z,97177.91
2023-05-21T03:08:50.469Z,97178.16
2023-05-21T03:11:35.967Z,97180.03
2023-05-21T03:14:23.113Z,97174.16
2023-05-21T03:17:08.798Z,97159.47
2023-05-21T03:19:54.825Z,97176.28
2023-05-21T03:22:40.823Z,97170.66
2023-05-21T03:25:26.445Z,97171.75
2023-05-21T03:28:13.468Z,97172.25
2023-05-21T03:31:05.830Z,97170.94
2023-05-21T03:34:06.217Z,97169.84
2023-05-21T03:36:51.862Z,97170.91
2023-05-21T03:39:37.814Z,97177.31
2023-05-21T03:42:24.768Z,97169.56
2023-05-21T03:45:12.712Z,97178.38
2023-05-21T03:48:27.409Z,97176.53
2023-05-21T03:51:13.360Z,97166.63
2023-05-21T03:53:59.853Z,97163.19
2023-05-21T03:56:46.063Z,97175.72
2023-05-21T03:59:31.318Z,97185.59
2023-05-21T04:02:17.825Z,97190.66
2023-05-21T04:05:03.527Z,97184.00
2023-05-21T04:07:50.154Z,97183.41
2023-05-21T04:10:36.009Z,97179.66
2023-05-21T04:13:21.997Z,97197.81
2023-05-21T04:16:10.334Z,97184.19
2023-05-21T04:18:56.296Z,97188.16
2023-05-21T04:21:45.961Z,97185.94
2023-05-21T04:24:33.918Z,97191.25
2023-05-21T04:27:26.161Z,97193.13
2023-05-21T04:30:12.545Z,97192.56
2023-05-21T04:33:00.371Z,97193.09
2023-05-21T04:35:47.420Z,97194.41
2023-05-21T04:38:33.399Z,97201.09
2023-05-21T04:41:19.140Z,97199.25
2023-05-21T04:44:07.495Z,97196.34
2023-05-21T04:46:54.988Z,97197.19
2023-05-21T04:49:40.487Z,97195.34
2023-05-21T04:52:26.950Z,97201.50
2023-05-21T04:55:12.706Z,97206.06
2023-05-21T04:57:58.501Z,97205.28
2023-05-21T05:00:47.001Z,97205.03
2023-05-21T05:03:33.946Z,97205.91
2023-05-21T05:06:19.240Z,97201.38
2023-05-21T05:09:05.347Z,97209.38
2023-05-21T05:11:51.490Z,97209.16
2023-05-21T05:14:37.225Z,97210.78
2023-05-21T05:17:22.622Z,97204.09
2023-05-21T05:20:10.091Z,97207.59
2023-05-21T05:22:56.580Z,97210.00
2023-05-21T05:25:42.012Z,97206.28
2023-05-21T05:28:27.986Z,97211.66
2023-05-21T05:31:14.116Z,97220.72
2023-05-21T05:34:01.867Z,97213.53
2023-05-21T05:36:47.870Z,97220.72
2023-05-21T05:39:33.281Z,97217.25
2023-05-21T05:42:19.089Z,97209.50
2023-05-21T05:45:04.977Z,97214.06
2023-05-21T05:47:50.744Z,97210.59
2023-05-21T05:50:36.340Z,97215.94
2023-05-21T05:53:21.757Z,97209.78
2023-05-21T05:56:08.935Z,97205.22
2023-05-21T05:58:55.793Z,97213.00
2023-05-21T06:01:42.525Z,97215.69
2023-05-21T06:04:30.230Z,97224.53
2023-05-21T06:07:16.073Z,97214.88
2023-05-21T06:10:01.423Z,97219.16
2023-05-21T06:12:47.542Z,97214.31
2023-05-21T06:15:34.492Z,97210.84
2023-05-21T06:18:21.067Z,97213.22
2023-05-21T06:21:07.696Z,97210.53
2023-05-21T06:23:54.598Z,97206.75
2023-05-21T06:26:40.349Z,97206.47
2023-05-21T06:29:26.380Z,97207.28
2023-05-21T06:32:13.749Z,97201.34
2023-05-21T06:35:00.239Z,97206.69
2023-05-21T06:37:46.376Z,97194.88
2023-05-21T06:40:32.139Z,97196.19
2023-05-21T06:43:18.461Z,97195.91
2023-05-21T06:46:23.039Z,97203.66
2023-05-21T06:49:14.481Z,97195.56
2023-05-21T06:52:02.266Z,97197.94
2023-05-21T06:54:48.451Z,97198.47
2023-05-21T06:57:34.487Z,97192.81
2023-05-21T07:00:20.130Z,97201.59
2023-05-21T07:03:05.884Z,97191.38
2023-05-21T07:05:51.649Z,97201.81
2023-05-21T07:08:36.919Z,97196.41
2023-05-21T07:11:25.326Z,97190.44
2023-05-21T07:14:10.990Z,97184.75
2023-05-21T07:16:56.897Z,97184.44
2023-05-21T07:19:42.734Z,97185.19
2023-05-21T07:22:28.810Z,97182.44
2023-05-21T07:25:14.487Z,97182.88
2023-05-21T07:28:00.052Z,97180.66
2023-05-21T07:30:46.158Z,97185.44
2023-05-21T07:33:36.112Z,97188.31
2023-05-21T07:36:21.889Z,97186.09
2023-05-21T07:39:07.385Z,97182.50
2023-05-21T07:41:53.170Z,97181.59
2023-05-21T07:44:39.143Z,97186.06
2023-05-21T07:47:26.791Z,97189.72
2023-05-21T07:50:12.910Z,97178.06
2023-05-21T07:52:58.718Z,97173.84
2023-05-21T07:55:48.112Z,97176.91
2023-05-21T07:58:37.032Z,97178.88
2023-05-21T08:01:24.269Z,97181.69
2023-05-21T08:04:10.134Z,97175.56
2023-05-21T08:06:56.587Z,97173.72
2023-05-21T08:09:42.429Z,97171.66
2023-05-21T08:12:29.347Z,97177.19
2023-05-21T08:15:15.322Z,97174.59
2023-05-21T08:18:04.167Z,97186.59
2023-05-21T08:20:50.525Z,97172.28
2023-05-21T08:23:38.581Z,97181.84
2023-05-21T08:26:24.182Z,97175.00
2023-05-21T08:29:10.081Z,97172.22
2023-05-21T08:31:56.548Z,97167.53
2023-05-21T08:34:42.662Z,97171.75
2023-05-21T08:37:50.411Z,97164.34
2023-05-21T08:41:10.200Z,97161.28
2023-05-21T08:43:59.846Z,97163.75
2023-05-21T08:46:49.204Z,97151.69
2023-05-21T08:49:36.083Z,97157.16
2023-05-21T08:52:21.777Z,97149.16
2023-05-21T08:55:08.854Z,97155.47
2023-05-21T08:57:55.988Z,97152.56
2023-05-21T09:00:43.552Z,97145.34
2023-05-21T09:03:31.956Z,97147.31
2023-05-21T09:06:17.341Z,97140.09
2023-05-21T09:09:11.796Z,97138.25
2023-05-21T09:12:01.864Z,97141.19
2023-05-21T09:14:48.065Z,97145.88
2023-05-21T09:17:36.102Z,97142.94
2023-05-21T09:20:54.249Z,97136.75
2023-05-21T09:23:40.807Z,97139.25
2023-05-21T09:26:27.217Z,97142.78
2023-05-21T09:29:19.704Z,97139.34
2023-05-21T09:32:09.155Z,97144.59
2023-05-21T09:34:58.068Z,97139.53
2023-05-21T09:37:52.405Z,97140.41
2023-05-21T09:40:44.639Z,97147.75
2023-05-21T09:43:31.310Z,97143.47
2023-05-21T09:46:25.822Z,97144.28
2023-05-21T09:49:25.117Z,97144.31
2023-05-21T09:52:11.430Z,97141.97
2023-05-21T09:54:57.509Z,97142.78
2023-05-21T09:57:43.899Z,97146.00
2023-05-21T10:00:29.622Z,97139.50
2023-05-21T10:03:17.112Z,97130.09
2023-05-21T10:06:03.783Z,97133.91
2023-05-21T10:08:52.605Z,97132.97
2023-05-21T10:11:39.971Z,97136.94
2023-05-21T10:14:27.722Z,97133.47
2023-05-21T10:17:14.786Z,97130.91
2023-05-21T10:20:05.252Z,97117.84
2023-05-21T10:22:51.204Z,97115.16
2023-05-21T10:25:37.370Z,97109.91
2023-05-21T10:28:24.101Z,97118.66
2023-05-21T10:31:09.809Z,97116.91
2023-05-21T10:33:56.410Z,97102.75
2023-05-21T10:36:43.732Z,97100.97
2023-05-21T10:39:30.782Z,97094.94
2023-05-21T10:42:31.736Z,97095.09
2023-05-21T10:45:42.968Z,97081.88
2023-05-21T10:49:02.299Z,97086.00
2023-05-21T10:52:00.555Z,97091.09
2023-05-21T10:55:11.833Z,97090.44
2023-05-21T10:58:16.943Z,97090.56
2023-05-21T11:01:03.823Z,97082.41
2023-05-21T11:03:50.570Z,97083.19
2023-05-21T11:06:36.544Z,97091.78
2023-05-21T11:09:23.031Z,97091.25
2023-05-21T11:12:09.891Z,97071.78
2023-05-21T11:14:58.563Z,97084.53
2023-05-21T11:17:44.605Z,97075.09
2023-05-21T11:20:34.796Z,97075.84
2023-05-21T11:23:23.672Z,97081.69
2023-05-21T11:26:09.249Z,97078.91
2023-05-21T11:29:11.296Z,97071.59
2023-05-21T11:32:05.842Z,97073.28
2023-05-21T11:34:51.759Z,97077.88
2023-05-21T11:37:40.856Z,97071.59
2023-05-21T11:40:30.260Z,97063.06
2023-05-21T11:43:15.857Z,97065.41
2023-05-21T11:46:02.410Z,97058.78
2023-05-21T11:48:48.614Z,97057.19
2023-05-21T11:51:33.964Z,97053.66
2023-05-21T11:54:19.610Z,97059.69
2023-05-21T11:57:08.987Z,97061.28
2023-05-21T11:59:55.039Z,97060.16
2023-05-21T12:02:46.874Z,97064.34
2023-05-21T12:05:47.187Z,97058.44
2023-05-21T12:08:32.775Z,97055.72
2023-05-21T12:11:18.395Z,97046.47
2023-05-21T12:14:03.798Z,97062.06
2023-05-21T12:16:49.239Z,97064.34
2023-05-21T12:19:35.810Z,97060.47
2023-05-21T12:22:23.581Z,97052.28
2023-05-21T12:25:10.222Z,97051.59
2023-05-21T12:27:57.977Z,97046.88
2023-05-21T12:30:44.043Z,97049.97
2023-05-21T12:33:36.012Z,97049.75
2023-05-21T12:36:30.529Z,97043.63
2023-05-21T12:39:16.565Z,97050.59
2023-05-21T12:42:02.563Z,97040.31
2023-05-21T12:44:48.207Z,97038.50
2023-05-21T12:47:33.768Z,97049.47
2023-05-21T12:50:22.110Z,97041.81
2023-05-21T12:53:11.282Z,97046.44
2023-05-21T12:56:13.695Z,97038.50
2023-05-21T12:58:58.972Z,97036.94
2023-05-21T13:01:48.202Z,97043.06
2023-05-21T13:04:36.637Z,97039.78
2023-05-21T13:07:22.895Z,97029.03
2023-05-21T13:10:09.043Z,97019.63
2023-05-21T13:12:54.341Z,97029.13
2023-05-21T13:15:39.816Z,97026.84
2023-05-21T13:18:25.728Z,97037.84
2023-05-21T13:21:11.312Z,97023.47
2023-05-21T13:23:56.834Z,97034.22
2023-05-21T13:26:42.165Z,97027.44
2023-05-21T13:29:27.563Z,97038.28
2023-05-21T13:32:13.094Z,97033.63
2023-05-21T13:34:58.535Z,97035.47
2023-05-21T13:37:44.616Z,97030.81
2023-05-21T13:40:30.397Z,97034.44
2023-05-21T13:43:15.930Z,97029.47
2023-05-21T13:46:01.441Z,97021.97
2023-05-21T13:48:46.791Z,97030.13
2023-05-21T13:54:22.784Z,97038.31
2023-05-21T13:57:08.493Z,97033.00
2023-05-21T13:59:54.157Z,97043.06
2023-05-21T14:02:43.138Z,97035.25
2023-05-21T14:05:28.797Z,97043.03
2023-05-21T14:08:16.753Z,97042.78
2023-05-21T14:11:04.771Z,97038.91
2023-05-21T14:13:51.310Z,97043.63
2023-05-21T14:16:37.406Z,97036.19
2023-05-21T14:19:23.123Z,97038.44
2023-05-21T14:22:08.517Z,97034.34
2023-05-21T14:24:54.256Z,97022.34
2023-05-21T14:27:39.538Z,97035.25
2023-05-21T14:30:25.132Z,97018.03
2023-05-21T14:33:11.447Z,97033.13
2023-05-21T14:35:57.456Z,97024.91
2023-05-21T14:38:43.189Z,97032.00
2023-05-21T14:41:29.474Z,97020.03
2023-05-21T14:44:15.569Z,97020.66
2023-05-21T14:47:01.428Z,97027.34
2023-05-21T14:49:46.897Z,97021.41
2023-05-21T14:52:32.655Z,97025.81
2023-05-21T14:55:18.719Z,97031.66
2023-05-21T14:58:06.862Z,97027.75
2023-05-21T15:00:52.286Z,97028.66
2023-05-21T15:03:37.910Z,97029.72
2023-05-21T15:06:23.461Z,97036.06
2023-05-21T15:09:08.936Z,97029.31
2023-05-21T15:11:54.654Z,97030.94
2023-05-21T15:14:41.005Z,97035.22
2023-05-21T15:17:26.708Z,97034.56
2023-05-21T15:20:12.721Z,97026.00
2023-05-21T15:23:15.400Z,97031.13
2023-05-21T15:26:02.887Z,97022.19
2023-05-21T15:28:48.596Z,97026.31
2023-05-21T15:31:34.158Z,97011.41
2023-05-21T15:34:19.797Z,97011.25
2023-05-21T15:37:05.638Z,97007.19
2023-05-21T15:39:51.406Z,97006.91
2023-05-21T15:42:37.033Z,97003.56
2023-05-21T15:45:22.667Z,96998.97
2023-05-21T15:48:08.253Z,96988.03
2023-05-21T15:50:54.364Z,96992.72
2023-05-21T15:53:40.037Z,96994.69
2023-05-21T15:56:26.636Z,96996.78
2023-05-21T15:59:15.293Z,96996.00
2023-05-21T16:02:01.189Z,96995.69
2023-05-21T16:04:49.971Z,96996.94
2023-05-21T16:07:37.004Z,96990.72
2023-05-21T16:10:23.796Z,96993.69
2023-05-21T16:13:09.526Z,96987.34
2023-05-21T16:15:55.137Z,96989.59
2023-05-21T16:18:40.580Z,96986.53
2023-05-21T16:21:25.990Z,96990.13
2023-05-21T16:24:11.890Z,96989.44
2023-05-21T16:26:57.915Z,96993.72
2023-05-21T16:29:43.387Z,96992.69
2023-05-21T16:32:28.984Z,96993.09
2023-05-21T16:35:14.767Z,96995.44
2023-05-21T16:38:00.313Z,96999.47
2023-05-21T16:40:47.227Z,96996.19
2023-05-21T16:43:32.834Z,96997.94
2023-05-21T16:46:18.537Z,96995.31
2023-05-21T16:49:04.049Z,96999.69
2023-05-21T16:51:49.356Z,96999.56
2023-05-21T16:54:34.983Z,96990.50
2023-05-21T16:57:20.714Z,96996.13
2023-05-21T17:00:07.879Z,97004.44
2023-05-21T17:02:53.647Z,96993.81
2023-05-21T17:05:39.266Z,96992.91
2023-05-21T17:08:24.681Z,96986.72
2023-05-21T17:11:10.348Z,96993.94
2023-05-21T17:13:56.081Z,96997.28
2023-05-21T17:16:42.985Z,96992.06
2023-05-21T17:19:28.745Z,96994.16
2023-05-21T17:22:14.993Z,96994.81
2023-05-21T17:25:01.125Z,96996.13
2023-05-21T17:27:46.814Z,96992.94
2023-05-21T17:30:32.585Z,97002.38
2023-05-21T17:33:18.452Z,96999.38
2023-05-21T17:36:03.926Z,96995.75
2023-05-21T17:38:50.798Z,96998.31
2023-05-21T17:41:36.074Z,97003.59
2023-05-21T17:44:22.127Z,97001.84
2023-05-21T17:47:08.043Z,97001.22
2023-05-21T17:49:53.968Z,97003.63
2023-05-21T17:52:40.059Z,97010.34
2023-05-21T17:55:25.777Z,97009.41
2023-05-21T17:58:11.599Z,97013.09
2023-05-21T18:00:57.369Z,97011.81
2023-05-21T18:03:42.850Z,97019.00
2023-05-21T18:06:29.006Z,97018.69
2023-05-21T18:09:15.501Z,97019.97
2023-05-21T18:12:03.536Z,97014.25
2023-05-21T18:14:49.150Z,97011.72
2023-05-21T18:17:34.550Z,97013.94
2023-05-21T18:20:21.064Z,97008.56
2023-05-21T18:23:06.843Z,97011.28
2023-05-21T18:25:52.092Z,97005.84
2023-05-21T18:28:37.581Z,97008.25
2023-05-21T18:31:24.296Z,97004.75
2023-05-21T18:34:10.321Z,97003.59
2023-05-21T18:36:58.900Z,97011.69
2023-05-21T18:39:44.352Z,97005.50
2023-05-21T18:42:30.001Z,96999.13
2023-05-21T18:45:15.773Z,97003.88
2023-05-21T18:48:02.975Z,97008.16
2023-05-21T18:50:48.911Z,97011.97
2023-05-21T18:53:34.410Z,97006.22
2023-05-21T18:56:19.879Z,97013.00
2023-05-21T18:59:05.351Z,97010.06
2023-05-21T19:01:51.034Z,97014.78
2023-05-21T19:04:36.887Z,97017.06
2023-05-21T19:07:22.537Z,97028.28
2023-05-21T19:10:08.511Z,97025.34
2023-05-21T19:12:54.068Z,97032.88
2023-05-21T19:15:39.974Z,97028.44
2023-05-21T19:18:31.732Z,97036.69
2023-05-21T19:21:17.822Z,97039.66
2023-05-21T19:24:05.903Z,97040.72
2023-05-21T19:26:51.961Z,97035.63
2023-05-21T19:29:37.262Z,97037.69
2023-05-21T19:32:23.872Z,97045.13
2023-05-21T19:35:09.715Z,97044.25
2023-05-21T19:37:59.690Z,97050.75
2023-05-21T19:40:46.698Z,97053.34
2023-05-21T19:43:31.906Z,97056.94
2023-05-21T19:46:20.361Z,97064.88
2023-05-21T19:49:06.264Z,97060.97
2023-05-21T19:51:54.665Z,97071.84
2023-05-21T19:54:40.601Z,97065.38
2023-05-21T19:57:26.562Z,97065.78
2023-05-21T20:00:13.848Z,97066.41
2023-05-21T20:02:59.131Z,97068.34
2023-05-21T20:05:44.508Z,97060.69
2023-05-21T20:08:29.986Z,97073.06
2023-05-21T20:11:16.303Z,97062.22
2023-05-21T20:14:02.369Z,97058.88
2023-05-21T20:16:48.486Z,97072.34
2023-05-21T20:19:35.906Z,97065.97
2023-05-21T20:22:21.891Z,97069.50
2023-05-21T20:25:08.898Z,97072.50
2023-05-21T20:27:54.639Z,97077.34
2023-05-21T20:30:54.503Z,97066.66
2023-05-21T20:33:41.080Z,97062.91
2023-05-21T20:36:27.265Z,97066.66
2023-05-21T20:39:14.091Z,97067.53
2023-05-21T20:42:01.232Z,97075.56
2023-05-21T20:44:46.799Z,97072.91
2023-05-21T20:47:33.974Z,97066.75
2023-05-21T20:50:25.887Z,97062.47
2023-05-21T20:53:15.892Z,97064.63
2023-05-21T20:56:02.123Z,97066.75
2023-05-21T20:58:51.240Z,97076.63
2023-05-21T21:01:38.028Z,97075.84
2023-05-21T21:04:24.825Z,97078.53
2023-05-21T21:07:11.900Z,97065.69
2023-05-21T21:09:57.863Z,97074.53
2023-05-21T21:12:43.455Z,97075.84
2023-05-21T21:15:28.916Z,97074.75
2023-05-21T21:18:15.018Z,97069.69
2023-05-21T21:21:01.515Z,97079.31
2023-05-21T21:23:47.214Z,97077.16
2023-05-21T21:26:32.824Z,97084.63
2023-05-21T21:29:18.378Z,97084.34
2023-05-21T21:32:03.893Z,97080.06
2023-05-21T21:34:49.290Z,97081.91
2023-05-21T21:37:34.668Z,97081.06
2023-05-21T21:40:20.099Z,97085.31
2023-05-21T21:43:07.738Z,97079.66
2023-05-21T21:45:53.198Z,97085.47
2023-05-21T21:48:38.604Z,97083.31
2023-05-21T21:51:23.959Z,97085.44
2023-05-21T21:54:09.716Z,97080.38
2023-05-21T21:56:55.436Z,97086.75
2023-05-21T21:59:40.916Z,97091.75
2023-05-21T22:02:26.345Z,97079.13
2023-05-21T22:05:15.023Z,97085.72
2023-05-21T22:08:00.389Z,97078.75
2023-05-21T22:10:46.388Z,97081.88
2023-05-21T22:13:31.947Z,97093.56
2023-05-21T22:16:17.308Z,97086.84
2023-05-21T22:19:03.002Z,97093.75
2023-05-21T22:21:48.364Z,97090.03
2023-05-21T22:24:33.919Z,97090.25
2023-05-21T22:27:19.408Z,97095.06
2023-05-21T22:30:06.028Z,97096.41
2023-05-21T22:32:51.873Z,97090.56
2023-05-21T22:35:37.332Z,97087.94
2023-05-21T22:38:22.712Z,97088.00
2023-05-21T22:41:08.602Z,97086.38
2023-05-21T22:43:53.950Z,97091.97
2023-05-21T22:46:42.116Z,97090.06
2023-05-21T22:49:27.871Z,97084.19
2023-05-21T22:52:14.686Z,97082.03
2023-05-21T22:55:00.946Z,97083.09
2023-05-21T22:57:46.764Z,97084.41
2023-05-21T23:00:32.543Z,97084.59
2023-05-21T23:03:18.129Z,97088.84
2023-05-21T23:06:04.016Z,97090.38
2023-05-21T23:08:49.525Z,97082.63
2023-05-21T23:11:34.917Z,97080.97
2023-05-21T23:14:21.047Z,97082.78
2023-05-21T23:17:07.550Z,97077.91
2023-05-21T23:19:52.852Z,97070.19
2023-05-21T23:22:38.487Z,97072.06
2023-05-21T23:25:23.870Z,97067.22
2023-05-21T23:28:09.613Z,97070.63
2023-05-21T23:30:55.465Z,97061.25
2023-05-21T23:33:41.485Z,97065.47
2023-05-21T23:36:26.976Z,97055.78
2023-05-21T23:39:12.595Z,97066.91
2023-05-21T23:41:58.205Z,97065.56
2023-05-21T23:44:44.307Z,97058.38
2023-05-21T23:47:29.802Z,97061.50
2023-05-21T23:50:15.463Z,97061.41
2023-05-21T23:53:01.225Z,97064.59
2023-05-21T23:55:46.844Z,97069.91
2023-05-21T23:58:32.382Z,97071.22
